createdAt,value
2023-04-08T00:00:19.543Z,96831.75
2023-04-08T00:01:21.177Z,96824.16
2023-04-08T00:02:22.858Z,96831.09
2023-04-08T00:03:24.860Z,96831.09
2023-04-08T00:04:26.680Z,96827.63
2023-04-08T00:05:28.406Z,96830.31
2023-04-08T00:06:30.048Z,96823.22
2023-04-08T00:07:31.742Z,96834.50
2023-04-08T00:08:33.280Z,96834.13
2023-04-08T00:09:34.836Z,96835.38
2023-04-08T00:10:36.672Z,96828.97
2023-04-08T00:11:38.577Z,96834.03
2023-04-08T00:12:40.279Z,96831.03
2023-04-08T00:13:41.831Z,96833.72
2023-04-08T00:14:43.462Z,96829.94
2023-04-08T00:15:45.649Z,96830.59
2023-04-08T00:16:47.204Z,96832.19
2023-04-08T00:17:48.770Z,96826.50
2023-04-08T00:18:50.634Z,96827.75
2023-04-08T00:19:52.849Z,96833.22
2023-04-08T00:20:54.501Z,96832.91
2023-04-08T00:21:56.054Z,96831.16
2023-04-08T00:22:57.716Z,96827.84
2023-04-08T00:23:59.251Z,96828.31
2023-04-08T00:25:01.826Z,96827.66
2023-04-08T00:26:03.375Z,96827.81
2023-04-08T00:27:04.886Z,96825.56
2023-04-08T00:28:06.480Z,96830.13
2023-04-08T00:29:08.091Z,96834.69
2023-04-08T00:30:10.163Z,96828.59
2023-04-08T00:31:11.909Z,96830.28
2023-04-08T00:32:13.506Z,96826.38
2023-04-08T00:33:15.288Z,96821.66
2023-04-08T00:34:17.324Z,96829.69
2023-04-08T00:35:19.019Z,96831.47
2023-04-08T00:36:20.580Z,96832.56
2023-04-08T00:37:23.213Z,96830.97
2023-04-08T00:38:24.729Z,96829.69
2023-04-08T00:39:26.300Z,96832.81
2023-04-08T00:40:27.909Z,96831.09
2023-04-08T00:41:29.463Z,96826.66
2023-04-08T00:42:31.387Z,96826.47
2023-04-08T00:43:32.958Z,96827.25
2023-04-08T00:44:34.503Z,96824.41
2023-04-08T00:45:36.096Z,96827.09
2023-04-08T00:46:39.946Z,96829.13
2023-04-08T00:47:41.703Z,96834.94
2023-04-08T00:48:43.486Z,96827.38
2023-04-08T00:49:45.395Z,96835.22
2023-04-08T00:50:47.390Z,96838.03
2023-04-08T00:51:48.917Z,96837.03
2023-04-08T00:52:50.522Z,96830.28
2023-04-08T00:53:52.044Z,96836.09
2023-04-08T00:54:53.662Z,96829.00
2023-04-08T00:55:55.259Z,96829.00
2023-04-08T00:56:57.300Z,96831.06
2023-04-08T00:57:59.038Z,96827.72
2023-04-08T00:59:01.213Z,96828.50
2023-04-08T01:00:05.911Z,96841.56
2023-04-08T01:01:14.897Z,96840.13
2023-04-08T01:02:26.970Z,96836.34
2023-04-08T01:04:17.628Z,96846.41
2023-04-08T01:05:57.089Z,96840.72
2023-04-08T01:07:13.104Z,96845.63
2023-04-08T01:08:16.580Z,96847.97
2023-04-08T01:09:21.407Z,96847.66
2023-04-08T01:10:33.442Z,96858.81
2023-04-08T01:11:38.507Z,96865.75
2023-04-08T01:12:57.278Z,96861.94
2023-04-08T01:13:59.968Z,96861.03
2023-04-08T01:15:07.817Z,96866.91
2023-04-08T01:16:12.876Z,96858.28
2023-04-08T01:17:18.168Z,96866.69
2023-04-08T01:18:21.928Z,96867.81
2023-04-08T01:19:30.722Z,96867.19
2023-04-08T01:20:32.560Z,96873.00
2023-04-08T01:21:36.637Z,96874.56
2023-04-08T01:22:50.382Z,96873.78
2023-04-08T01:24:11.417Z,96879.31
2023-04-08T01:25:18.808Z,96875.91
2023-04-08T01:27:31.930Z,96877.47
2023-04-08T01:28:34.176Z,96876.50
2023-04-08T01:29:37.319Z,96874.66
2023-04-08T01:30:40.891Z,96873.75
2023-04-08T01:31:43.888Z,96871.09
2023-04-08T01:32:47.114Z,96875.22
2023-04-08T01:33:51.144Z,96874.28
2023-04-08T01:34:54.375Z,96869.75
2023-04-08T01:35:57.930Z,96871.00
2023-04-08T01:37:00.336Z,96881.53
2023-04-08T01:38:03.445Z,96877.09
2023-04-08T01:39:06.780Z,96877.25
2023-04-08T01:40:10.789Z,96877.75
2023-04-08T01:41:12.377Z,96878.22
2023-04-08T01:42:15.808Z,96879.63
2023-04-08T01:43:18.842Z,96880.41
2023-04-08T01:44:22.456Z,96881.22
2023-04-08T01:45:24.495Z,96880.41
2023-04-08T01:46:27.210Z,96873.66
2023-04-08T01:47:30.983Z,96886.22
2023-04-08T01:48:33.851Z,96879.75
2023-04-08T01:49:36.095Z,96883.38
2023-04-08T01:50:38.348Z,96886.53
2023-04-08T01:51:41.095Z,96886.22
2023-04-08T01:52:47.822Z,96884.16
2023-04-08T01:53:49.355Z,96883.38
2023-04-08T01:54:51.058Z,96884.16
2023-04-08T01:55:57.579Z,96890.13
2023-04-08T01:57:01.614Z,96884.16
2023-04-08T01:58:05.681Z,96885.09
2023-04-08T01:59:11.706Z,96886.22
2023-04-08T02:00:14.463Z,96889.03
2023-04-08T02:01:20.241Z,96882.94
2023-04-08T02:02:25.110Z,96887.63
2023-04-08T02:03:31.088Z,96883.56
2023-04-08T02:04:36.569Z,96888.13
2023-04-08T02:05:39.874Z,96893.00
2023-04-08T02:06:41.542Z,96894.84
2023-04-08T02:07:43.154Z,96896.78
2023-04-08T02:08:44.682Z,96904.00
2023-04-08T02:09:46.249Z,96902.75
2023-04-08T02:10:47.843Z,96903.66
2023-04-08T02:11:49.406Z,96906.19
2023-04-08T02:12:51.025Z,96905.53
2023-04-08T02:13:53.698Z,96901.28
2023-04-08T02:14:57.685Z,96896.56
2023-04-08T02:16:30.636Z,96885.69
2023-04-08T02:17:40.446Z,96893.38
2023-04-08T02:18:46.064Z,96892.28
2023-04-08T02:20:07.740Z,96890.84
2023-04-08T02:21:13.658Z,96890.22
2023-04-08T02:22:29.769Z,96889.09
2023-04-08T02:23:35.607Z,96888.00
2023-04-08T02:24:39.081Z,96893.81
2023-04-08T02:25:44.408Z,96895.41
2023-04-08T02:26:50.369Z,96889.69
2023-04-08T02:27:53.106Z,96890.66
2023-04-08T02:28:56.388Z,96880.09
2023-04-08T02:30:00.402Z,96884.28
2023-04-08T02:31:03.858Z,96876.75
2023-04-08T02:32:06.042Z,96875.00
2023-04-08T02:33:09.041Z,96877.72
2023-04-08T02:34:12.013Z,96876.81
2023-04-08T02:35:15.878Z,96877.28
2023-04-08T02:36:17.879Z,96872.88
2023-04-08T02:37:19.592Z,96869.75
2023-04-08T02:38:21.788Z,96869.63
2023-04-08T02:39:31.501Z,96867.09
2023-04-08T02:40:35.560Z,96863.31
2023-04-08T02:41:37.199Z,96864.75
2023-04-08T02:42:38.755Z,96869.53
2023-04-08T02:43:40.339Z,96868.31
2023-04-08T02:44:41.977Z,96865.94
2023-04-08T02:45:44.913Z,96865.03
2023-04-08T02:46:46.470Z,96869.56
2023-04-08T02:47:48.564Z,96868.94
2023-04-08T02:48:50.502Z,96873.19
2023-04-08T02:49:53.392Z,96866.91
2023-04-08T02:50:55.032Z,96875.22
2023-04-08T02:51:56.557Z,96869.56
2023-04-08T02:52:58.137Z,96868.28
2023-04-08T02:53:59.659Z,96864.47
2023-04-08T02:55:01.223Z,96865.25
2023-04-08T02:56:02.802Z,96858.47
2023-04-08T02:57:04.345Z,96857.03
2023-04-08T02:58:06.026Z,96857.53
2023-04-08T02:59:07.712Z,96848.06
2023-04-08T03:00:09.987Z,96852.78
2023-04-08T03:01:11.662Z,96848.22
2023-04-08T03:02:13.391Z,96848.22
2023-04-08T03:03:15.121Z,96846.16
2023-04-08T03:04:16.806Z,96856.75
2023-04-08T03:05:18.345Z,96855.38
2023-04-08T03:06:19.900Z,96853.47
2023-04-08T03:07:21.446Z,96850.63
2023-04-08T03:08:23.431Z,96859.25
2023-04-08T03:09:25.055Z,96858.63
2023-04-08T03:10:26.744Z,96858.31
2023-04-08T03:11:28.376Z,96858.75
2023-04-08T03:12:29.954Z,96854.19
2023-04-08T03:13:31.824Z,96865.38
2023-04-08T03:14:33.604Z,96863.47
2023-04-08T03:15:35.123Z,96862.03
2023-04-08T03:16:36.665Z,96864.41
2023-04-08T03:17:38.375Z,96869.44
2023-04-08T03:18:39.956Z,96868.31
2023-04-08T03:19:41.521Z,96861.56
2023-04-08T03:20:43.059Z,96869.88
2023-04-08T03:21:44.618Z,96867.69
2023-04-08T03:22:46.195Z,96865.81
2023-04-08T03:23:47.811Z,96869.25
2023-04-08T03:24:49.384Z,96863.13
2023-04-08T03:25:50.906Z,96868.66
2023-04-08T03:26:52.456Z,96870.72
2023-04-08T03:27:53.971Z,96864.31
2023-04-08T03:28:55.583Z,96862.59
2023-04-08T03:29:57.940Z,96860.88
2023-04-08T03:31:00.981Z,96867.78
2023-04-08T03:32:02.572Z,96858.66
2023-04-08T03:33:07.978Z,96861.50
2023-04-08T03:34:09.619Z,96861.22
2023-04-08T03:35:11.236Z,96873.63
2023-04-08T03:36:12.956Z,96878.84
2023-04-08T03:37:14.459Z,96874.75
2023-04-08T03:38:16.473Z,96875.56
2023-04-08T03:39:18.061Z,96862.50
2023-04-08T03:40:19.977Z,96873.19
2023-04-08T03:41:21.909Z,96871.75
2023-04-08T03:42:23.836Z,96880.56
2023-04-08T03:43:26.193Z,96884.31
2023-04-08T03:44:28.000Z,96888.41
2023-04-08T03:45:29.548Z,96882.47
2023-04-08T03:46:31.169Z,96884.31
2023-04-08T03:47:32.860Z,96877.56
2023-04-08T03:48:34.478Z,96883.84
2023-04-08T03:49:36.475Z,96886.53
2023-04-08T03:50:38.021Z,96882.28
2023-04-08T03:51:39.656Z,96885.09
2023-04-08T03:52:41.272Z,96883.38
2023-04-08T03:53:42.792Z,96885.69
2023-04-08T03:54:44.323Z,96881.00
2023-04-08T03:55:46.002Z,96884.16
2023-04-08T03:56:47.489Z,96876.59
2023-04-08T03:57:49.105Z,96885.25
2023-04-08T03:58:50.989Z,96877.56
2023-04-08T03:59:52.783Z,96882.28
2023-04-08T04:00:54.333Z,96870.47
2023-04-08T04:01:56.527Z,96876.44
2023-04-08T04:02:58.306Z,96872.97
2023-04-08T04:04:00.007Z,96875.16
2023-04-08T04:05:01.844Z,96875.00
2023-04-08T04:06:03.667Z,96878.41
2023-04-08T04:07:05.357Z,96878.75
2023-04-08T04:08:07.077Z,96883.88
2023-04-08T04:09:08.609Z,96880.00
2023-04-08T04:10:10.943Z,96878.28
2023-04-08T04:11:12.529Z,96884.69
2023-04-08T04:12:14.076Z,96880.63
2023-04-08T04:13:15.932Z,96873.22
2023-04-08T04:14:17.575Z,96875.88
2023-04-08T04:15:19.199Z,96880.00
2023-04-08T04:16:21.523Z,96875.94
2023-04-08T04:17:23.389Z,96874.03
2023-04-08T04:18:25.093Z,96874.81
2023-04-08T04:19:31.331Z,96874.81
2023-04-08T04:20:32.983Z,96872.34
2023-04-08T04:21:34.538Z,96879.09
2023-04-08T04:22:36.454Z,96874.06
2023-04-08T04:23:38.033Z,96874.41
2023-04-08T04:24:39.577Z,96877.72
2023-04-08T04:25:42.085Z,96874.13
2023-04-08T04:26:43.635Z,96881.50
2023-04-08T04:27:45.187Z,96871.28
2023-04-08T04:28:46.741Z,96878.66
2023-04-08T04:29:48.250Z,96884.19
2023-04-08T04:30:49.843Z,96871.94
2023-04-08T04:31:51.610Z,96872.72
2023-04-08T04:32:53.347Z,96882.13
2023-04-08T04:33:55.156Z,96875.06
2023-04-08T04:34:56.734Z,96882.47
2023-04-08T04:35:58.338Z,96885.44
2023-04-08T04:36:59.905Z,96881.22
2023-04-08T04:38:01.669Z,96883.72
2023-04-08T04:39:03.596Z,96886.25
2023-04-08T04:40:06.182Z,96884.81
2023-04-08T04:41:07.756Z,96878.84
2023-04-08T04:42:09.358Z,96875.38
2023-04-08T04:43:11.328Z,96883.25
2023-04-08T04:44:13.212Z,96878.53
2023-04-08T04:45:15.012Z,96879.63
2023-04-08T04:46:16.621Z,96882.75
2023-04-08T04:47:18.880Z,96883.38
2023-04-08T04:48:20.473Z,96879.19
2023-04-08T04:49:22.097Z,96880.75
2023-04-08T04:50:23.636Z,96880.44
2023-04-08T04:51:25.155Z,96880.44
2023-04-08T04:52:26.827Z,96880.72
2023-04-08T04:53:29.239Z,96884.94
2023-04-08T04:54:30.800Z,96884.47
2023-04-08T04:55:32.536Z,96883.19
2023-04-08T04:56:34.248Z,96887.28
2023-04-08T04:57:36.210Z,96884.75
2023-04-08T04:58:37.742Z,96889.13
2023-04-08T04:59:39.294Z,96878.25
2023-04-08T05:00:41.112Z,96881.84
2023-04-08T05:01:42.799Z,96882.81
2023-04-08T05:02:44.600Z,96883.72
2023-04-08T05:03:46.567Z,96884.66
2023-04-08T05:04:48.353Z,96879.13
2023-04-08T05:05:54.302Z,96883.50
2023-04-08T05:06:55.817Z,96874.38
2023-04-08T05:07:57.410Z,96881.16
2023-04-08T05:08:59.131Z,96884.28
2023-04-08T05:10:01.285Z,96884.13
2023-04-08T05:11:02.902Z,96880.94
2023-04-08T05:12:04.692Z,96886.56
2023-04-08T05:13:06.490Z,96887.63
2023-04-08T05:14:08.173Z,96885.22
2023-04-08T05:15:10.065Z,96885.69
2023-04-08T05:16:11.745Z,96886.63
2023-04-08T05:17:13.680Z,96888.47
2023-04-08T05:18:15.489Z,96893.44
2023-04-08T05:19:17.053Z,96886.66
2023-04-08T05:20:18.610Z,96891.56
2023-04-08T05:21:20.423Z,96885.41
2023-04-08T05:22:22.119Z,96891.88
2023-04-08T05:23:23.707Z,96886.53
2023-04-08T05:24:25.677Z,96895.47
2023-04-08T05:25:27.273Z,96884.44
2023-04-08T05:26:28.885Z,96890.09
2023-04-08T05:27:30.588Z,96889.47
2023-04-08T05:28:32.134Z,96887.72
2023-04-08T05:29:33.688Z,96891.78
2023-04-08T05:30:35.658Z,96885.28
2023-04-08T05:31:37.257Z,96881.97
2023-04-08T05:32:39.048Z,96889.13
2023-04-08T05:33:40.571Z,96892.28
2023-04-08T05:34:42.182Z,96888.34
2023-04-08T05:35:43.918Z,96888.91
2023-04-08T05:36:45.522Z,96891.97
2023-04-08T05:37:47.077Z,96891.41
2023-04-08T05:38:49.127Z,96890.31
2023-04-08T05:39:50.783Z,96891.09
2023-04-08T05:40:52.537Z,96895.16
2023-04-08T05:41:54.061Z,96891.63
2023-04-08T05:42:55.892Z,96894.78
2023-04-08T05:43:57.584Z,96892.53
2023-04-08T05:44:59.260Z,96886.22
2023-04-08T05:46:00.951Z,96887.47
2023-04-08T05:47:02.565Z,96887.00
2023-04-08T05:48:04.422Z,96889.59
2023-04-08T05:49:06.252Z,96889.28
2023-04-08T05:50:08.410Z,96887.03
2023-04-08T05:51:17.806Z,96884.66
2023-04-08T05:52:19.417Z,96896.84
2023-04-08T05:53:20.975Z,96893.97
2023-04-08T05:54:22.550Z,96893.72
2023-04-08T05:55:24.224Z,96891.09
2023-04-08T05:56:26.103Z,96894.09
2023-04-08T05:57:27.660Z,96900.25
2023-04-08T05:58:29.215Z,96901.81
2023-04-08T05:59:30.803Z,96898.03
2023-04-08T06:00:32.323Z,96898.66
2023-04-08T06:01:34.010Z,96897.63
2023-04-08T06:02:36.991Z,96899.44
2023-04-08T06:03:38.772Z,96891.75
2023-04-08T06:04:40.567Z,96890.69
2023-04-08T06:05:42.296Z,96890.56
2023-04-08T06:06:44.175Z,96886.97
2023-04-08T06:07:46.248Z,96897.56
2023-04-08T06:08:48.706Z,96885.41
2023-04-08T06:09:50.580Z,96887.47
2023-04-08T06:10:52.571Z,96895.19
2023-04-08T06:11:54.167Z,96888.75
2023-04-08T06:12:55.930Z,96892.34
2023-04-08T06:13:57.502Z,96892.34
2023-04-08T06:14:59.187Z,96894.69
2023-04-08T06:16:11.380Z,96894.03
2023-04-08T06:17:12.914Z,96894.19
2023-04-08T06:18:16.315Z,96895.56
2023-04-08T06:19:18.050Z,96898.38
2023-04-08T06:20:21.935Z,96898.34
2023-04-08T06:21:23.697Z,96894.88
2023-04-08T06:22:25.236Z,96895.78
2023-04-08T06:23:26.802Z,96898.25
2023-04-08T06:24:29.603Z,96898.84
2023-04-08T06:25:31.198Z,96896.47
2023-04-08T06:26:33.004Z,96895.78
2023-04-08T06:27:34.598Z,96892.69
2023-04-08T06:28:36.275Z,96887.16
2023-04-08T06:29:37.857Z,96887.31
2023-04-08T06:30:39.356Z,96893.31
2023-04-08T06:31:41.444Z,96888.44
2023-04-08T06:32:43.260Z,96890.81
2023-04-08T06:33:44.941Z,96892.22
2023-04-08T06:34:46.621Z,96895.78
2023-04-08T06:35:48.220Z,96890.25
2023-04-08T06:36:50.391Z,96894.78
2023-04-08T06:37:51.978Z,96891.25
2023-04-08T06:38:53.512Z,96885.25
2023-04-08T06:39:55.446Z,96884.31
2023-04-08T06:40:56.948Z,96886.81
2023-04-08T06:41:58.505Z,96883.28
2023-04-08T06:43:00.516Z,96888.25
2023-04-08T06:44:02.058Z,96881.78
2023-04-08T06:45:04.834Z,96885.53
2023-04-08T06:46:06.583Z,96880.28
2023-04-08T06:47:08.135Z,96879.84
2023-04-08T06:48:09.748Z,96889.09
2023-04-08T06:49:12.867Z,96888.22
2023-04-08T06:50:14.496Z,96892.63
2023-04-08T06:51:16.234Z,96889.75
2023-04-08T06:52:17.848Z,96888.88
2023-04-08T06:53:19.393Z,96884.41
2023-04-08T06:54:21.291Z,96886.53
2023-04-08T06:55:22.850Z,96886.19
2023-04-08T06:56:26.295Z,96887.09
2023-04-08T06:57:27.945Z,96890.22
2023-04-08T06:58:30.047Z,96884.94
2023-04-08T06:59:31.745Z,96889.03
2023-04-08T07:00:34.128Z,96885.88
2023-04-08T07:01:36.136Z,96888.03
2023-04-08T07:02:37.914Z,96891.16
2023-04-08T07:03:39.579Z,96885.22
2023-04-08T07:04:41.223Z,96889.88
2023-04-08T07:05:42.826Z,96882.44
2023-04-08T07:06:44.321Z,96877.59
2023-04-08T07:07:46.325Z,96891.22
2023-04-08T07:08:48.086Z,96888.16
2023-04-08T07:09:50.913Z,96883.84
2023-04-08T07:10:52.885Z,96890.00
2023-04-08T07:11:54.484Z,96893.56
2023-04-08T07:12:56.828Z,96884.31
2023-04-08T07:13:58.538Z,96889.22
2023-04-08T07:15:00.041Z,96887.88
2023-04-08T07:16:01.692Z,96885.97
2023-04-08T07:17:03.504Z,96888.31
2023-04-08T07:18:06.126Z,96895.81
2023-04-08T07:19:08.159Z,96900.03
2023-04-08T07:20:10.664Z,96897.81
2023-04-08T07:21:12.757Z,96898.50
2023-04-08T07:22:14.374Z,96899.94
2023-04-08T07:23:15.967Z,96899.19
2023-04-08T07:24:17.509Z,96895.41
2023-04-08T07:25:19.038Z,96900.28
2023-04-08T07:26:20.659Z,96895.38
2023-04-08T07:27:22.242Z,96892.91
2023-04-08T07:28:23.826Z,96895.03
2023-04-08T07:29:25.366Z,96890.44
2023-04-08T07:30:26.968Z,96893.78
2023-04-08T07:31:28.519Z,96894.16
2023-04-08T07:32:30.145Z,96894.94
2023-04-08T07:33:33.394Z,96907.44
2023-04-08T07:34:36.357Z,96900.38
2023-04-08T07:35:38.175Z,96899.84
2023-04-08T07:36:40.789Z,96897.19
2023-04-08T07:37:42.289Z,96902.19
2023-04-08T07:38:43.923Z,96896.72
2023-04-08T07:39:45.549Z,96898.03
2023-04-08T07:40:47.068Z,96898.47
2023-04-08T07:41:48.672Z,96899.81
2023-04-08T07:42:50.339Z,96898.25
2023-04-08T07:43:51.888Z,96901.63
2023-04-08T07:44:53.423Z,96899.41
2023-04-08T07:46:02.834Z,96896.50
2023-04-08T07:47:04.617Z,96892.91
2023-04-08T07:48:06.560Z,96897.16
2023-04-08T07:49:08.145Z,96894.47
2023-04-08T07:50:09.994Z,96899.22
2023-04-08T07:51:11.808Z,96891.44
2023-04-08T07:52:13.410Z,96893.88
2023-04-08T07:53:15.864Z,96899.06
2023-04-08T07:54:17.870Z,96892.97
2023-04-08T07:55:19.483Z,96903.16
2023-04-08T07:56:22.428Z,96896.00
2023-04-08T07:57:24.138Z,96897.47
2023-04-08T07:58:26.109Z,96902.28
2023-04-08T07:59:28.814Z,96905.28
2023-04-08T08:00:31.425Z,96891.78
2023-04-08T08:01:35.037Z,96899.06
2023-04-08T08:02:36.688Z,96895.81
2023-04-08T08:03:39.527Z,96902.41
2023-04-08T08:04:41.562Z,96900.38
2023-04-08T08:05:43.391Z,96897.00
2023-04-08T08:06:45.139Z,96901.28
2023-04-08T08:07:46.648Z,96900.88
2023-04-08T08:08:48.143Z,96895.44
2023-04-08T08:09:49.728Z,96900.03
2023-04-08T08:10:51.300Z,96899.19
2023-04-08T08:11:52.862Z,96899.84
2023-04-08T08:12:54.393Z,96898.28
2023-04-08T08:13:55.961Z,96900.72
2023-04-08T08:14:59.132Z,96902.72
2023-04-08T08:16:00.776Z,96899.31
2023-04-08T08:17:03.950Z,96893.22
2023-04-08T08:18:05.476Z,96890.84
2023-04-08T08:19:08.793Z,96899.34
2023-04-08T08:20:10.877Z,96894.19
2023-04-08T08:21:12.440Z,96890.88
2023-04-08T08:22:13.992Z,96897.59
2023-04-08T08:23:15.739Z,96890.25
2023-04-08T08:24:17.405Z,96891.28
2023-04-08T08:25:19.801Z,96890.69
2023-04-08T08:26:21.440Z,96893.28
2023-04-08T08:27:23.031Z,96889.97
2023-04-08T08:28:24.640Z,96891.63
2023-04-08T08:29:26.249Z,96892.44
2023-04-08T08:30:27.958Z,96892.25
2023-04-08T08:31:29.805Z,96887.13
2023-04-08T08:32:31.869Z,96889.50
2023-04-08T08:33:34.046Z,96892.56
2023-04-08T08:34:36.155Z,96887.91
2023-04-08T08:35:38.018Z,96889.97
2023-04-08T08:36:39.693Z,96887.97
2023-04-08T08:37:42.330Z,96887.06
2023-04-08T08:38:44.036Z,96889.88
2023-04-08T08:39:45.697Z,96887.78
2023-04-08T08:40:47.446Z,96887.44
2023-04-08T08:41:49.175Z,96891.59
2023-04-08T08:42:54.629Z,96881.50
2023-04-08T08:43:57.310Z,96884.31
2023-04-08T08:45:03.169Z,96880.25
2023-04-08T08:46:10.475Z,96878.97
2023-04-08T08:47:12.321Z,96882.38
2023-04-08T08:48:14.170Z,96880.47
2023-04-08T08:49:16.501Z,96884.63
2023-04-08T08:50:19.147Z,96882.09
2023-04-08T08:51:22.097Z,96882.03
2023-04-08T08:52:24.153Z,96877.34
2023-04-08T08:53:31.779Z,96875.91
2023-04-08T08:54:35.877Z,96878.31
2023-04-08T08:56:05.822Z,96877.00
2023-04-08T08:57:01.712Z,96883.25
2023-04-08T08:58:03.649Z,96883.09
2023-04-08T08:59:05.509Z,96879.09
2023-04-08T09:00:09.460Z,96881.66
2023-04-08T09:01:30.543Z,96874.72
2023-04-08T09:02:33.176Z,96877.56
2023-04-08T09:03:34.939Z,96877.44
2023-04-08T09:04:37.071Z,96876.44
2023-04-08T09:05:51.819Z,96871.53
2023-04-08T09:07:10.799Z,96875.09
2023-04-08T09:08:27.235Z,96875.63
2023-04-08T09:09:28.757Z,96872.09
2023-04-08T09:10:30.354Z,96868.25
2023-04-08T09:11:33.016Z,96871.53
2023-04-08T09:12:35.284Z,96871.25
2023-04-08T09:13:37.355Z,96869.66
2023-04-08T09:14:38.929Z,96865.91
2023-04-08T09:16:02.580Z,96870.81
2023-04-08T09:17:04.250Z,96872.66
2023-04-08T09:18:22.401Z,96864.59
2023-04-08T09:19:24.060Z,96858.75
2023-04-08T09:20:25.825Z,96869.00
2023-04-08T09:21:27.536Z,96870.88
2023-04-08T09:22:29.114Z,96866.53
2023-04-08T09:23:42.619Z,96866.41
2023-04-08T09:24:44.431Z,96866.19
2023-04-08T09:25:46.189Z,96871.66
2023-04-08T09:26:48.074Z,96872.59
2023-04-08T09:27:49.786Z,96878.94
2023-04-08T09:29:25.029Z,96873.59
2023-04-08T09:30:28.288Z,96872.16
2023-04-08T09:31:31.696Z,96870.81
2023-04-08T09:32:52.906Z,96865.97
2023-04-08T09:33:56.645Z,96861.03
2023-04-08T09:34:58.348Z,96861.75
2023-04-08T09:35:59.971Z,96855.19
2023-04-08T09:37:02.002Z,96866.16
2023-04-08T09:38:03.619Z,96864.84
2023-04-08T09:39:06.557Z,96859.50
2023-04-08T09:40:08.987Z,96855.88
2023-04-08T09:41:14.289Z,96863.50
2023-04-08T09:42:16.332Z,96858.44
2023-04-08T09:43:24.170Z,96848.94
2023-04-08T09:44:29.189Z,96856.03
2023-04-08T09:45:34.290Z,96851.44
2023-04-08T09:46:47.527Z,96852.72
2023-04-08T09:48:14.467Z,96855.34
2023-04-08T09:49:23.541Z,96856.91
2023-04-08T09:50:31.807Z,96856.31
2023-04-08T09:51:40.962Z,96849.56
2023-04-08T09:52:50.453Z,96854.81
2023-04-08T09:54:02.863Z,96844.34
2023-04-08T09:55:08.564Z,96853.22
2023-04-08T09:56:12.453Z,96847.19
2023-04-08T09:57:22.357Z,96840.81
2023-04-08T09:58:29.794Z,96849.41
2023-04-08T09:59:36.698Z,96848.69
2023-04-08T10:00:44.200Z,96842.53
2023-04-08T10:01:51.079Z,96841.06
2023-04-08T10:03:10.437Z,96839.81
2023-04-08T10:04:21.085Z,96838.25
2023-04-08T10:05:25.002Z,96845.22
2023-04-08T10:06:29.691Z,96837.94
2023-04-08T10:07:31.725Z,96837.66
2023-04-08T10:08:33.760Z,96845.41
2023-04-08T10:09:36.143Z,96834.97
2023-04-08T10:10:42.641Z,96842.50
2023-04-08T10:11:44.279Z,96852.66
2023-04-08T10:12:46.178Z,96849.41
2023-04-08T10:13:48.470Z,96843.56
2023-04-08T10:15:29.166Z,96841.66
2023-04-08T10:16:31.199Z,96849.41
2023-04-08T10:17:36.791Z,96847.56
2023-04-08T10:18:39.280Z,96840.31
2023-04-08T10:19:41.420Z,96837.03
2023-04-08T10:20:44.026Z,96833.56
2023-04-08T10:21:50.155Z,96836.75
2023-04-08T10:22:51.758Z,96832.56
2023-04-08T10:23:59.367Z,96826.25
2023-04-08T10:25:33.334Z,96828.25
2023-04-08T10:26:37.138Z,96832.94
2023-04-08T10:27:42.745Z,96826.13
2023-04-08T10:28:44.280Z,96829.09
2023-04-08T10:29:46.462Z,96830.97
2023-04-08T10:30:55.470Z,96822.22
2023-04-08T10:31:57.773Z,96824.88
2023-04-08T10:33:00.281Z,96821.59
2023-04-08T10:34:18.849Z,96823.75
2023-04-08T10:35:35.331Z,96825.66
2023-04-08T10:36:37.562Z,96819.13
2023-04-08T10:37:39.508Z,96826.06
2023-04-08T10:38:42.826Z,96817.44
2023-04-08T10:39:49.459Z,96816.97
2023-04-08T10:40:51.465Z,96812.25
2023-04-08T10:41:53.365Z,96802.19
2023-04-08T10:42:58.726Z,96808.53
2023-04-08T10:44:03.872Z,96803.97
2023-04-08T10:45:05.948Z,96809.53
2023-04-08T10:46:10.734Z,96814.91
2023-04-08T10:47:12.813Z,96798.94
2023-04-08T10:48:29.063Z,96799.56
2023-04-08T10:49:34.920Z,96797.03
2023-04-08T10:50:36.674Z,96792.66
2023-04-08T10:51:39.573Z,96803.00
2023-04-08T10:52:52.422Z,96802.81
2023-04-08T10:53:54.409Z,96794.50
2023-04-08T10:54:56.114Z,96789.97
2023-04-08T10:56:07.789Z,96795.53
2023-04-08T10:57:09.563Z,96797.78
2023-04-08T10:58:12.700Z,96795.44
2023-04-08T10:59:16.957Z,96785.34
2023-04-08T11:00:20.161Z,96791.22
2023-04-08T11:01:22.591Z,96795.84
2023-04-08T11:02:32.938Z,96790.88
2023-04-08T11:03:36.233Z,96794.28
2023-04-08T11:04:42.692Z,96796.22
2023-04-08T11:05:44.484Z,96793.16
2023-04-08T11:06:47.512Z,96788.16
2023-04-08T11:07:49.545Z,96789.66
2023-04-08T11:08:51.376Z,96789.97
2023-04-08T11:09:52.962Z,96785.25
2023-04-08T11:10:54.957Z,96785.16
2023-04-08T11:11:57.010Z,96787.25
2023-04-08T11:12:58.564Z,96786.53
2023-04-08T11:14:00.658Z,96780.97
2023-04-08T11:15:04.037Z,96785.28
2023-04-08T11:16:17.331Z,96781.09
2023-04-08T11:17:21.206Z,96778.56
2023-04-08T11:18:23.355Z,96773.31
2023-04-08T11:19:25.074Z,96776.41
2023-04-08T11:20:26.844Z,96769.03
2023-04-08T11:21:29.369Z,96764.81
2023-04-08T11:22:33.513Z,96763.63
2023-04-08T11:23:36.131Z,96778.50
2023-04-08T11:24:38.068Z,96773.41
2023-04-08T11:25:41.487Z,96770.59
2023-04-08T11:26:43.301Z,96768.56
2023-04-08T11:27:45.081Z,96771.75
2023-04-08T11:28:49.279Z,96767.44
2023-04-08T11:29:51.074Z,96757.19
2023-04-08T11:30:53.967Z,96759.31
2023-04-08T11:31:56.904Z,96749.84
2023-04-08T11:32:58.597Z,96752.22
2023-04-08T11:34:00.186Z,96751.88
2023-04-08T11:35:05.092Z,96759.84
2023-04-08T11:36:08.579Z,96758.59
2023-04-08T11:37:10.236Z,96756.97
2023-04-08T11:38:12.045Z,96759.09
2023-04-08T11:39:13.573Z,96755.38
2023-04-08T11:40:21.574Z,96765.63
2023-04-08T11:41:23.821Z,96754.97
2023-04-08T11:42:32.872Z,96760.16
2023-04-08T11:43:36.611Z,96757.09
2023-04-08T11:44:38.179Z,96752.56
2023-04-08T11:45:40.638Z,96754.81
2023-04-08T11:46:55.319Z,96756.16
2023-04-08T11:47:57.090Z,96756.25
2023-04-08T11:49:06.532Z,96752.66
2023-04-08T11:50:09.246Z,96756.94
2023-04-08T11:51:12.452Z,96747.41
2023-04-08T11:52:14.508Z,96751.34
2023-04-08T11:53:25.971Z,96753.16
2023-04-08T11:54:32.289Z,96751.44
2023-04-08T11:55:34.011Z,96749.09
2023-04-08T11:56:47.086Z,96748.16
2023-04-08T11:57:48.681Z,96746.09
2023-04-08T11:58:51.269Z,96731.28
2023-04-08T11:59:52.820Z,96737.03
2023-04-08T12:00:54.469Z,96726.47
2023-04-08T12:01:56.476Z,96724.91
2023-04-08T12:02:58.576Z,96727.00
2023-04-08T12:04:02.406Z,96723.97
2023-04-08T12:05:04.350Z,96717.53
2023-04-08T12:06:07.455Z,96721.75
2023-04-08T12:07:10.786Z,96716.16
2023-04-08T12:08:12.337Z,96717.78
2023-04-08T12:09:14.936Z,96718.41
2023-04-08T12:10:16.614Z,96715.19
2023-04-08T12:11:20.010Z,96712.94
2023-04-08T12:12:21.789Z,96718.97
2023-04-08T12:13:23.398Z,96720.09
2023-04-08T12:14:27.744Z,96712.53
2023-04-08T12:15:30.141Z,96707.56
2023-04-08T12:16:31.777Z,96713.31
2023-04-08T12:17:33.421Z,96715.34
2023-04-08T12:18:35.010Z,96713.63
2023-04-08T12:19:38.425Z,96717.19
2023-04-08T12:20:40.422Z,96717.34
2023-04-08T12:21:42.223Z,96709.00
2023-04-08T12:22:43.854Z,96712.09
2023-04-08T12:23:45.571Z,96702.75
2023-04-08T12:24:47.222Z,96701.25
2023-04-08T12:25:48.762Z,96704.44